Time;durP1;ratioP1;P1;durP2;ratioP2;P2;SDS_P1;SDS_P2;PMS_P1;PMS_P2;Temp;Humidity;BMP_temperature;BMP_pressure;BME280_temperature;BME280_humidity;BME280_pressure;Samples;Min_cycle;Max_cycle;Signal;HPM_P1;HPM_P2
2023/03/16 00:02:17;;;;;;;;;;;128.30;2252.80;;;;;;5054571;28;20025;-79
2023/03/16 00:04:46;;;;;;;10.57;4.68;;;128.30;2252.80;;;;;;5049179;28;20016;-79
2023/03/16 00:07:13;;;;;;;10.25;4.03;;;128.30;2252.80;;;;;;5046805;28;20056;-79
2023/03/16 00:09:40;;;;;;;10.98;4.35;;;128.30;2252.80;;;;;;5072467;28;20494;-79
2023/03/16 00:12:14;;;;;;;7.85;4.43;;;128.20;2252.80;;;;;;5068513;28;20356;-79
2023/03/16 00:14:42;;;;;;;9.38;3.78;;;128.40;2252.80;;;;;;5075165;28;20033;-80
2023/03/16 00:17:09;;;;;;;10.98;3.80;;;128.40;2252.80;;;;;;5074871;28;20421;-80
2023/03/16 00:19:37;;;;;;;7.20;3.88;;;128.40;2252.80;;;;;;5056091;28;20029;-79
2023/03/16 00:22:03;;;;;;;7.00;3.47;;;128.40;2252.80;;;;;;5071405;28;20040;-80
2023/03/16 00:24:28;;;;;;;;;;;128.60;2252.80;;;;;;5056394;28;20037;-80
2023/03/16 00:26:54;;;;;;;5.15;3.08;;;128.60;2252.80;;;;;;5074998;28;20304;-80
2023/03/16 00:29:21;;;;;;;;;;;128.50;2252.80;;;;;;5069890;28;20500;-80
2023/03/16 00:31:47;;;;;;;7.32;2.63;;;128.50;2252.80;;;;;;5057270;28;19908;-79
2023/03/16 00:34:14;;;;;;;9.07;3.42;;;128.60;2252.80;;;;;;5075432;28;20036;-81
2023/03/16 00:36:41;;;;;;;8.20;2.60;;;128.50;2252.80;;;;;;5053788;28;20029;-80
2023/03/16 00:39:10;;;;;;;5.10;2.53;;;128.60;2252.80;;;;;;5072896;28;20027;-78
2023/03/16 00:41:37;;;;;;;7.55;3.67;;;128.60;2252.80;;;;;;5056277;28;20064;-80
2023/03/16 00:44:04;;;;;;;5.28;2.42;;;128.70;2252.80;;;;;;5049248;28;20028;-80
2023/03/16 00:46:30;;;;;;;5.32;2.80;;;128.70;2252.80;;;;;;5056834;28;20021;-80
2023/03/16 00:48:55;;;;;;;;;;;128.70;2252.80;;;;;;5056911;28;20379;-80
2023/03/16 00:51:21;;;;;;;5.07;2.88;;;128.60;2252.80;;;;;;5056761;28;19966;-79
2023/03/16 00:53:47;;;;;;;;;;;128.60;2252.80;;;;;;5054587;28;20029;-80
2023/03/16 00:56:13;;;;;;;8.15;3.08;;;128.60;2252.80;;;;;;5054275;28;19912;-80
2023/03/16 00:58:41;;;;;;;4.93;2.78;;;153.80;2252.80;;;;;;5074788;28;20059;-79
2023/03/16 01:01:19;;;;;;;7.05;3.00;;;128.70;2252.80;;;;;;5056523;28;20540;-80
2023/03/16 01:03:45;;;;;;;7.28;2.92;;;128.60;2252.80;;;;;;5073362;28;20031;-80
2023/03/16 01:06:15;;;;;;;8.55;3.58;;;128.60;2252.80;;;;;;5049282;28;20040;-80
2023/03/16 01:08:42;;;;;;;7.57;3.30;;;128.80;2252.80;;;;;;5048447;28;20093;-80
2023/03/16 01:11:15;;;;;;;6.78;3.30;;;128.70;2252.80;;;;;;5053453;28;20032;-80
2023/03/16 01:13:41;;;;;;;6.65;2.95;;;128.70;2252.80;;;;;;5061937;28;20025;-80
2023/03/16 01:16:07;;;;;;;9.27;4.10;;;128.80;2252.80;;;;;;5066848;28;20029;-80
2023/03/16 01:18:33;;;;;;;5.93;3.22;;;128.70;2252.80;;;;;;5056309;28;20044;-79
2023/03/16 01:21:02;;;;;;;;;;;128.80;2252.80;;;;;;5057014;28;20524;-81
2023/03/16 01:23:29;;;;;;;10.00;3.33;;;128.70;2252.80;;;;;;5067794;28;19905;-79
2023/03/16 01:25:56;;;;;;;5.45;2.83;;;128.60;2252.80;;;;;;5051373;28;20033;-80
2023/03/16 01:28:23;;;;;;;7.68;2.95;;;128.80;2252.80;;;;;;5072747;28;20036;-80
2023/03/16 01:30:56;;;;;;;7.68;3.42;;;128.80;2252.80;;;;;;5051190;28;20093;-77
2023/03/16 01:33:24;;;;;;;8.93;3.08;;;128.90;2252.80;;;;;;5068641;28;20457;-77
2023/03/16 01:36:01;;;;;;;6.63;3.17;;;128.80;2252.80;;;;;;5047831;28;20045;-80
2023/03/16 01:38:27;;;;;;;6.25;2.95;;;128.90;2252.80;;;;;;5045360;28;20505;-79
2023/03/16 01:40:53;;;;;;;;;;;153.60;2252.80;;;;;;5053338;28;20071;-79
2023/03/16 01:43:22;;;;;;;6.82;3.13;;;128.90;2252.80;;;;;;5052679;28;20408;-80
2023/03/16 01:46:03;;;;;;;7.40;3.53;;;128.90;2252.80;;;;;;5069589;28;20036;-80
2023/03/16 01:48:58;;;;;;;9.38;4.68;;;128.90;2252.80;;;;;;5068627;28;20036;-80
2023/03/16 01:51:43;;;;;;;8.93;4.88;;;128.90;2252.80;;;;;;5052966;28;20113;-78
2023/03/16 01:54:33;;;;;;;10.25;4.50;;;128.90;2252.80;;;;;;5052026;28;20105;-80
2023/03/16 01:57:07;;;;;;;10.52;5.30;;;128.90;2252.80;;;;;;5043160;28;20056;-80
2023/03/16 01:59:57;;;;;;;8.00;4.28;;;128.90;2252.80;;;;;;5072674;28;20033;-80
2023/03/16 02:02:25;;;;;;;8.95;3.40;;;128.90;2252.80;;;;;;5035539;28;20040;-79
2023/03/16 02:05:21;;;;;;;7.90;3.83;;;128.90;2252.80;;;;;;5052742;28;20060;-81
2023/03/16 02:07:51;;;;;;;11.77;3.95;;;128.90;2252.80;;;;;;4957075;28;20106;-80
2023/03/16 02:10:19;;;;;;;7.28;3.38;;;153.60;2252.80;;;;;;4957204;28;20769;-80
2023/03/16 02:12:46;;;;;;;8.15;3.67;;;128.90;2252.80;;;;;;4972753;28;20085;-80
2023/03/16 02:15:13;;;;;;;13.27;3.50;;;128.90;2252.80;;;;;;4973490;28;20034;-80
2023/03/16 02:17:42;;;;;;;9.27;3.78;;;128.90;2252.80;;;;;;4956792;28;20519;-80
2023/03/16 02:20:35;;;;;;;10.98;3.63;;;153.70;2252.80;;;;;;4957088;28;20062;-78
2023/03/16 02:23:02;;;;;;;5.95;2.83;;;153.60;2252.80;;;;;;4956742;28;20027;-80
2023/03/16 02:26:00;;;;;;;6.45;3.83;;;153.60;2252.80;;;;;;4956959;28;20053;-80
2023/03/16 02:29:00;;;;;;;14.65;4.32;;;153.60;2252.80;;;;;;4972250;28;20046;-80
2023/03/16 02:31:26;;;;;;;9.90;4.20;;;128.90;2252.80;;;;;;4967591;28;20036;-80
2023/03/16 02:33:53;;;;;;;7.90;4.22;;;128.90;2252.80;;;;;;4965334;28;20030;-79
2023/03/16 02:36:19;;;;;;;11.07;4.25;;;128.90;2252.80;;;;;;4958564;28;20127;-80
2023/03/16 02:38:45;;;;;;;;;;;128.90;2252.80;;;;;;4961748;28;20155;-79
2023/03/16 02:41:14;;;;;;;8.38;3.92;;;128.90;2252.80;;;;;;4974978;28;19910;-80
2023/03/16 02:44:02;;;;;;;11.18;4.13;;;128.90;2252.80;;;;;;4965509;28;20035;-79
2023/03/16 02:46:28;;;;;;;13.80;4.32;;;153.60;2252.80;;;;;;5037714;28;20032;-80
2023/03/16 02:49:18;;;;;;;13.63;5.80;;;128.90;2252.80;;;;;;5064082;28;20029;-80
2023/03/16 02:51:45;;;;;;;14.57;5.10;;;128.90;2252.80;;;;;;5053764;28;20542;-79
2023/03/16 02:54:11;;;;;;;16.63;4.70;;;128.80;2252.80;;;;;;5039350;28;20049;-79
2023/03/16 02:56:37;;;;;;;;;;;128.90;2252.80;;;;;;5057764;28;20047;-80
2023/03/16 02:59:03;;;;;;;11.43;5.15;;;128.90;2252.80;;;;;;5056900;28;20410;-81
2023/03/16 03:01:28;;;;;;;;;;;128.80;2252.80;;;;;;5057895;28;20071;-80
2023/03/16 03:03:54;;;;;;;15.40;5.63;;;128.90;2252.80;;;;;;5070663;28;19948;-80
2023/03/16 03:06:20;;;;;;;;;;;128.90;2252.80;;;;;;5070139;28;20024;-80
2023/03/16 03:08:45;;;;;;;34.55;11.00;;;128.90;2252.80;;;;;;5040432;28;19913;-77
2023/03/16 03:11:11;;;;;;;;;;;128.90;2252.80;;;;;;5051082;28;20031;-80
2023/03/16 03:13:38;;;;;;;33.03;11.43;;;128.90;2252.80;;;;;;5077043;28;19904;-80
2023/03/16 03:16:04;;;;;;;23.52;8.98;;;128.80;2252.80;;;;;;5077080;28;20378;-76
2023/03/16 03:18:29;;;;;;;;;;;128.90;2252.80;;;;;;5039957;28;20037;-80
2023/03/16 03:20:55;;;;;;;11.93;5.07;;;128.80;2252.80;;;;;;5069515;28;19912;-80
2023/03/16 03:23:20;;;;;;;;;;;128.70;2252.80;;;;;;5059015;28;20032;-80
2023/03/16 03:25:46;;;;;;;13.23;5.57;;;128.80;2252.80;;;;;;5065100;28;19905;-79
2023/03/16 03:28:13;;;;;;;14.88;7.07;;;128.70;2252.80;;;;;;5051722;28;20115;-80
2023/03/16 03:30:38;;;;;;;21.80;7.95;;;153.60;2252.80;;;;;;5050382;28;20068;-79
2023/03/16 03:33:04;;;;;;;;;;;153.80;2252.80;;;;;;5058986;28;20063;-81
2023/03/16 03:35:30;;;;;;;11.30;5.30;;;153.70;2252.80;;;;;;5058923;28;19904;-79
2023/03/16 03:37:56;;;;;;;;;;;153.60;2252.80;;;;;;5040509;28;20470;-80
2023/03/16 03:40:22;;;;;;;9.27;3.97;;;153.60;2252.80;;;;;;5039051;28;19908;-79
2023/03/16 03:42:47;;;;;;;;;;;128.90;2252.80;;;;;;5058146;28;20024;-80
2023/03/16 03:45:14;;;;;;;7.70;3.83;;;128.90;2252.80;;;;;;5058715;28;19905;-79
2023/03/16 03:47:41;;;;;;;7.95;4.57;;;128.70;2252.80;;;;;;5062782;28;20028;-80
2023/03/16 03:50:08;;;;;;;11.98;5.03;;;128.70;2252.80;;;;;;5058759;28;20081;-80
2023/03/16 03:52:34;;;;;;;11.05;4.43;;;128.80;2252.80;;;;;;5038007;28;20048;-80
2023/03/16 03:55:00;;;;;;;;;;;128.70;2252.80;;;;;;5052297;28;20028;-80
2023/03/16 03:57:25;;;;;;;11.48;5.05;;;128.80;2252.80;;;;;;5058221;28;19915;-80
2023/03/16 03:59:51;;;;;;;;;;;128.90;2252.80;;;;;;5058949;28;20559;-79
2023/03/16 04:02:16;;;;;;;13.52;5.25;;;153.60;2252.80;;;;;;5038986;28;20339;-80
2023/03/16 04:04:42;;;;;;;;;;;128.90;2252.80;;;;;;5038797;28;20029;-79
2023/03/16 04:07:08;;;;;;;11.13;4.85;;;128.80;2252.80;;;;;;5057083;28;20007;-80
2023/03/16 04:09:35;;;;;;;12.77;6.32;;;128.90;2252.80;;;;;;5045796;28;20124;-80
2023/03/16 04:12:02;;;;;;;12.65;6.10;;;128.90;2252.80;;;;;;5051577;28;20541;-79
2023/03/16 04:14:28;;;;;;;16.85;5.97;;;128.90;2252.80;;;;;;5050629;28;20116;-79
2023/03/16 04:16:55;;;;;;;24.08;7.43;;;128.70;2252.80;;;;;;5057829;28;20065;-80
2023/03/16 04:19:22;;;;;;;16.55;6.75;;;128.80;2252.80;;;;;;5062987;28;20025;-80
2023/03/16 04:21:48;;;;;;;23.67;9.30;;;128.40;2252.80;;;;;;5043965;28;20032;-79
2023/03/16 04:24:14;;;;;;;16.65;6.95;;;128.90;2252.80;;;;;;5045075;28;20021;-80
2023/03/16 04:26:40;;;;;;;;;;;128.80;2252.80;;;;;;5057630;28;20158;-80
2023/03/16 04:29:06;;;;;;;22.92;7.78;;;128.90;2252.80;;;;;;5057710;28;20018;-79
2023/03/16 04:31:32;;;;;;;;;;;153.60;2252.80;;;;;;5058087;28;20499;-79
2023/03/16 04:33:57;;;;;;;20.88;8.27;;;128.90;2252.80;;;;;;5057682;28;19992;-80
2023/03/16 04:36:24;;;;;;;;;;;128.90;2252.80;;;;;;5056462;28;20053;-78
2023/03/16 04:38:50;;;;;;;15.63;6.40;;;128.80;2252.80;;;;;;5051133;28;20013;-79
2023/03/16 04:41:17;;;;;;;;;;;128.70;2252.80;;;;;;5058086;28;20323;-80
2023/03/16 04:43:43;;;;;;;10.70;5.10;;;128.80;2252.80;;;;;;5062070;28;20274;-80
2023/03/16 04:46:10;;;;;;;19.88;7.28;;;128.80;2252.80;;;;;;5062193;28;20020;-79
2023/03/16 04:48:36;;;;;;;17.67;7.25;;;128.70;2252.80;;;;;;5061711;28;20028;-77
2023/03/16 04:51:03;;;;;;;22.25;8.75;;;128.80;2252.80;;;;;;5044468;28;20025;-79
2023/03/16 04:53:30;;;;;;;17.42;6.75;;;128.90;2252.80;;;;;;5044157;28;20075;-79
2023/03/16 04:55:56;;;;;;;16.45;6.85;;;128.90;2252.80;;;;;;5044136;28;20048;-80
2023/03/16 04:58:23;;;;;;;13.52;5.88;;;128.60;2252.80;;;;;;5061731;28;20033;-78
2023/03/16 05:00:51;;;;;;;19.35;7.68;;;128.90;2252.80;;;;;;5061319;28;20493;-80
2023/03/16 05:03:16;;;;;;;15.15;7.32;;;128.90;2252.80;;;;;;5056350;28;20020;-78
2023/03/16 05:05:42;;;;;;;;;;;153.60;2252.80;;;;;;5051061;28;20482;-79
2023/03/16 05:08:09;;;;;;;10.05;5.75;;;153.60;2252.80;;;;;;5057177;28;19994;-80
2023/03/16 05:10:35;;;;;;;13.15;6.28;;;153.70;2252.80;;;;;;5057082;28;20066;-80
2023/03/16 05:13:01;;;;;;;;;;;153.60;2252.80;;;;;;5056167;28;20116;-79
2023/03/16 05:15:26;;;;;;;12.57;6.05;;;153.70;2252.80;;;;;;5037265;28;19958;-80
2023/03/16 05:17:54;;;;;;;;;;;153.70;2252.80;;;;;;5054706;28;20421;-80
2023/03/16 05:20:20;;;;;;;9.43;4.28;;;153.60;2252.80;;;;;;5037215;28;19911;-80
2023/03/16 05:22:47;;;;;;;14.52;6.13;;;128.90;2252.80;;;;;;5068024;28;20025;-79
2023/03/16 05:25:14;;;;;;;14.55;5.68;;;153.60;2252.80;;;;;;5044216;28;20091;-80
2023/03/16 05:27:42;;;;;;;9.73;5.80;;;128.90;2252.80;;;;;;5056728;28;20482;-79
2023/03/16 05:30:10;;;;;;;21.33;6.68;;;128.80;2252.80;;;;;;5048858;28;20112;-79
2023/03/16 05:32:35;;;;;;;10.23;6.13;;;128.70;2252.80;;;;;;5049794;28;20035;-79
2023/03/16 05:35:02;;;;;;;;;;;128.60;2252.80;;;;;;5045667;28;20119;-76
2023/03/16 05:37:28;;;;;;;14.60;7.10;;;128.80;2252.80;;;;;;5056039;28;19951;-77
2023/03/16 05:39:53;;;;;;;;;;;128.70;2252.80;;;;;;5056313;28;20024;-80
2023/03/16 05:42:19;;;;;;;18.85;8.02;;;128.60;2252.80;;;;;;5043040;28;19983;-80
2023/03/16 05:44:45;;;;;;;;;;;128.40;2252.80;;;;;;5057100;28;20029;-79
2023/03/16 05:47:11;;;;;;;16.27;6.72;;;128.50;2252.80;;;;;;5054033;28;19904;-80
2023/03/16 05:49:36;;;;;;;;;;;128.50;2252.80;;;;;;5037037;28;20033;-80
2023/03/16 05:52:03;;;;;;;13.57;6.68;;;128.50;2252.80;;;;;;5067653;28;19909;-80
2023/03/16 05:54:28;;;;;;;14.07;6.13;;;128.40;2252.80;;;;;;5044654;28;20040;-77
2023/03/16 05:56:54;;;;;;;;;;;128.50;2252.80;;;;;;5056481;28;20032;-78
2023/03/16 05:59:20;;;;;;;13.23;7.22;;;128.40;2252.80;;;;;;5056179;28;19908;-79
2023/03/16 06:01:45;;;;;;;;;;;128.30;2252.80;;;;;;5041363;28;20425;-80
2023/03/16 06:04:11;;;;;;;14.70;6.90;;;128.40;2252.80;;;;;;5043620;28;20007;-78
2023/03/16 06:06:37;;;;;;;;;;;128.40;2252.80;;;;;;5054901;28;20036;-79
2023/03/16 06:09:03;;;;;;;17.45;7.65;;;128.50;2252.80;;;;;;5073135;28;19916;-79
2023/03/16 06:11:31;;;;;;;13.93;6.82;;;128.40;2252.80;;;;;;5056008;28;20028;-80
2023/03/16 06:13:58;;;;;;;17.27;7.05;;;128.40;2252.80;;;;;;5070359;28;20048;-80
2023/03/16 06:16:24;;;;;;;18.52;7.50;;;128.40;2252.80;;;;;;5054966;28;20028;-80
2023/03/16 06:18:50;;;;;;;;;;;128.50;2252.80;;;;;;5056214;28;20043;-80
2023/03/16 06:21:16;;;;;;;18.10;9.77;;;128.60;2252.80;;;;;;5054966;28;20370;-79
2023/03/16 06:23:41;;;;;;;;;;;128.60;2252.80;;;;;;5049394;28;20513;-80
2023/03/16 06:26:07;;;;;;;13.48;7.70;;;128.70;2252.80;;;;;;5054713;28;20289;-79
2023/03/16 06:28:33;;;;;;;;;;;128.90;2252.80;;;;;;5064591;28;20047;-85
2023/03/16 06:30:58;;;;;;;18.67;7.47;;;153.60;2252.80;;;;;;5055674;28;19908;-84
2023/03/16 06:33:24;;;;;;;;;;;153.80;2252.80;;;;;;5056268;28;20037;-83
2023/03/16 06:35:50;;;;;;;22.10;8.98;;;154.10;2252.80;;;;;;5054859;28;19908;-82
2023/03/16 06:38:16;;;;;;;;;;;154.30;2252.80;;;;;;5072658;28;20028;-84
2023/03/16 06:40:42;;;;;;;13.27;6.30;;;154.30;2252.80;;;;;;5054316;28;20081;-82
2023/03/16 06:43:07;;;;;;;;;;;154.30;2252.80;;;;;;5073591;28;20074;-83
2023/03/16 06:45:33;;;;;;;10.98;4.97;;;154.40;2252.80;;;;;;5072233;28;19912;-81
2023/03/16 06:47:59;;;;;;;;;;;154.40;2252.80;;;;;;5072478;28;20043;-78
2023/03/16 06:50:26;;;;;;;14.05;6.10;;;154.50;2252.80;;;;;;5072792;28;19905;-79
2023/03/16 06:52:51;;;;;;;12.20;5.07;;;179.20;2252.80;;;;;;5041955;28;20530;-80
2023/03/16 06:55:17;;;;;;;;;;;179.20;2252.80;;;;;;5054072;28;20087;-80
2023/03/16 06:57:42;;;;;;;14.23;6.38;;;179.30;2252.80;;;;;;5071320;28;20369;-79
2023/03/16 07:00:10;;;;;;;;;;;179.20;2252.80;;;;;;5055317;28;20123;-76
2023/03/16 07:02:38;;;;;;;10.77;5.40;;;179.30;2252.80;;;;;;5072687;28;20341;-78
2023/03/16 07:05:04;;;;;;;16.90;7.10;;;179.40;2252.80;;;;;;5046474;28;20037;-78
2023/03/16 07:07:30;;;;;;;17.45;7.53;;;179.50;2252.80;;;;;;5054440;28;20033;-78
2023/03/16 07:09:55;;;;;;;;;;;179.40;2252.80;;;;;;5048869;28;20398;-77
2023/03/16 07:12:21;;;;;;;13.68;6.18;;;179.30;2252.80;;;;;;5054045;28;19913;-79
2023/03/16 07:14:47;;;;;;;;;;;154.50;2252.80;;;;;;5055560;28;20028;-79
2023/03/16 07:17:12;;;;;;;17.58;6.25;;;154.50;2252.80;;;;;;5053858;28;19916;-79
2023/03/16 07:19:38;;;;;;;;;;;154.50;2252.80;;;;;;5051268;28;20028;-78
2023/03/16 07:22:04;;;;;;;15.73;7.30;;;154.40;2252.80;;;;;;5052058;28;19908;-79
2023/03/16 07:24:29;;;;;;;;;;;154.30;2252.80;;;;;;5054169;28;20463;-79
2023/03/16 07:26:55;;;;;;;21.60;7.78;;;154.50;2252.80;;;;;;5053712;28;19931;-80
2023/03/16 07:29:22;;;;;;;;;;;179.20;2252.80;;;;;;5064652;28;20051;-78
2023/03/16 07:31:48;;;;;;;13.55;6.72;;;154.50;2252.80;;;;;;5058396;28;19915;-81
2023/03/16 07:34:13;;;;;;;;;;;154.50;2252.80;;;;;;5076296;28;20028;-80
2023/03/16 07:36:39;;;;;;;13.15;5.97;;;154.40;2252.80;;;;;;5058416;28;19971;-81
2023/03/16 07:39:05;;;;;;;;;;;154.20;2252.80;;;;;;5049510;28;20021;-78
2023/03/16 07:41:31;;;;;;;16.25;6.60;;;154.20;2252.80;;;;;;5058677;28;19904;-81
2023/03/16 07:43:57;;;;;;;;;;;154.20;2252.80;;;;;;5054254;28;20455;-79
2023/03/16 07:46:23;;;;;;;12.90;6.10;;;154.20;2252.80;;;;;;5058172;28;20361;-80
2023/03/16 07:48:49;;;;;;;22.95;8.52;;;154.30;2252.80;;;;;;5075589;28;20040;-79
2023/03/16 07:51:15;;;;;;;;;;;179.30;2252.80;;;;;;5075700;28;20066;-78
2023/03/16 07:53:41;;;;;;;7.40;5.20;;;179.30;2252.80;;;;;;5057886;28;19916;-79
2023/03/16 07:56:07;;;;;;;;;;;179.70;2252.80;;;;;;5048640;28;20024;-79
2023/03/16 07:58:33;;;;;;;10.43;5.70;;;179.70;2252.80;;;;;;5057469;28;20313;-80
2023/03/16 08:01:00;;;;;;;;;;;179.80;2252.80;;;;;;5075389;28;20055;-79
2023/03/16 08:03:27;;;;;;;11.77;5.43;;;204.80;2252.80;;;;;;5057464;28;20418;-79
2023/03/16 08:05:54;;;;;;;11.77;5.95;;;179.90;2252.80;;;;;;5051039;28;20052;-79
2023/03/16 08:08:21;;;;;;;15.30;5.72;;;180.10;2252.80;;;;;;5074470;28;20098;-79
2023/03/16 08:10:53;;;;;;;10.15;6.07;;;180.10;2252.80;;;;;;5049817;28;20471;-79
2023/03/16 08:13:21;;;;;;;17.77;6.82;;;204.80;2252.80;;;;;;5057648;28;20048;-78
2023/03/16 08:16:00;;;;;;;13.75;5.95;;;204.90;2252.80;;;;;;5056155;28;20059;-79
2023/03/16 08:18:28;;;;;;;13.38;5.22;;;205.00;2252.80;;;;;;5063964;28;20094;-82
2023/03/16 08:20:55;;;;;;;12.43;4.65;;;205.10;2252.80;;;;;;5075401;28;20090;-81
2023/03/16 08:23:21;;;;;;;11.95;4.97;;;205.00;2252.80;;;;;;5075348;28;20108;-80
2023/03/16 08:25:51;;;;;;;22.92;6.22;;;205.10;2252.80;;;;;;5074787;28;20027;-82
2023/03/16 08:28:20;;;;;;;11.35;4.95;;;205.10;2252.80;;;;;;5070728;28;20094;-80
2023/03/16 08:30:48;;;;;;;11.23;5.30;;;205.10;2252.80;;;;;;5075718;28;20043;-79
2023/03/16 08:33:16;;;;;;;12.88;5.00;;;205.20;2252.80;;;;;;5049922;28;20490;-77
2023/03/16 08:35:43;;;;;;;11.57;4.45;;;205.20;2252.80;;;;;;5057176;28;20116;-77
2023/03/16 08:38:10;;;;;;;12.27;5.20;;;205.30;2252.80;;;;;;5056832;28;20470;-77
2023/03/16 08:40:36;;;;;;;14.00;4.78;;;205.30;2252.80;;;;;;5063217;28;20021;-77
2023/03/16 08:43:03;;;;;;;12.35;4.68;;;205.40;2252.80;;;;;;5042236;28;20107;-76
2023/03/16 08:45:29;;;;;;;10.00;4.22;;;205.30;2252.80;;;;;;5074603;28;20016;-77
2023/03/16 08:47:55;;;;;;;;;;;205.60;2252.80;;;;;;5038403;28;20040;-79
2023/03/16 08:50:21;;;;;;;7.03;4.18;;;205.40;2252.80;;;;;;5049467;28;19916;-81
2023/03/16 08:52:47;;;;;;;9.57;3.92;;;205.50;2252.80;;;;;;5069053;28;20021;-78
2023/03/16 08:55:14;;;;;;;11.18;3.97;;;205.60;2252.80;;;;;;5050069;28;20024;-86
2023/03/16 08:57:40;;;;;;;7.88;4.28;;;205.60;2124.80;;;;;;5074568;28;20024;-81
2023/03/16 09:00:11;;;;;;;10.65;4.55;;;205.60;2176.00;;;;;;5057124;28;20470;-81
2023/03/16 09:02:39;;;;;;;11.55;4.45;;;205.70;2201.60;;;;;;5061745;28;20135;-79
2023/03/16 09:05:07;;;;;;;9.70;4.60;;;230.40;2201.60;;;;;;5056921;28;20028;-82
2023/03/16 09:07:34;;;;;;;10.32;4.55;;;230.50;2150.40;;;;;;5067251;28;20032;-80
2023/03/16 09:10:00;;;;;;;7.75;4.38;;;230.50;2099.20;;;;;;5067681;28;20107;-75
2023/03/16 09:12:26;;;;;;;;;;;230.60;2150.40;;;;;;5037027;28;20107;-78
2023/03/16 09:14:53;;;;;;;9.10;3.90;;;230.60;2099.20;;;;;;5068627;28;20073;-77
2023/03/16 09:17:19;;;;;;;8.00;3.92;;;230.70;2048.00;;;;;;5066054;28;20048;-77
2023/03/16 09:19:45;;;;;;;13.38;4.78;;;230.80;2099.20;;;;;;5038542;28;20025;-78
2023/03/16 09:22:11;;;;;;;8.25;4.22;;;230.80;2022.40;;;;;;5073902;28;20024;-77
2023/03/16 09:24:37;;;;;;;10.73;4.03;;;230.70;1971.20;;;;;;5053618;28;20033;-81
2023/03/16 09:27:04;;;;;;;10.88;4.47;;;230.90;1971.20;;;;;;5045544;28;20032;-80
2023/03/16 09:29:30;;;;;;;19.63;5.70;;;230.90;1945.60;;;;;;5052029;28;20037;-80
2023/03/16 09:31:56;;;;;;;12.85;4.30;;;230.90;1894.40;;;;;;5036303;28;20025;-76
2023/03/16 09:34:22;;;;;;;12.90;5.65;;;231.20;1971.20;;;;;;5053759;28;20029;-79
2023/03/16 09:36:47;;;;;;;;;;;256.00;1996.80;;;;;;5045955;28;20466;-76
2023/03/16 09:39:13;;;;;;;11.25;5.07;;;231.10;1868.80;;;;;;5041927;28;20331;-77
2023/03/16 09:41:42;;;;;;;;;;;231.10;1920.00;;;;;;5056148;28;20447;-79
2023/03/16 09:44:36;;;;;;;10.90;4.80;;;256.00;2022.40;;;;;;5039016;28;19904;-78
2023/03/16 09:47:03;;;;;;;15.07;4.93;;;256.20;2099.20;;;;;;5036058;28;20135;-82
2023/03/16 09:49:35;;;;;;;10.95;4.88;;;256.00;1945.60;;;;;;5060616;28;20033;-80
2023/03/16 09:52:19;;;;;;;9.05;4.32;;;256.10;1894.40;;;;;;5041633;28;20024;-76
2023/03/16 09:54:52;;;;;;;14.48;5.25;;;256.20;1894.40;;;;;;5035922;28;20036;-77
2023/03/16 09:57:27;;;;;;;9.13;4.75;;;256.50;1868.80;;;;;;5066493;28;20484;-79
2023/03/16 10:00:13;;;;;;;12.65;5.20;;;256.90;1792.00;;;;;;5066078;28;20035;-78
2023/03/16 10:03:02;;;;;;;7.55;4.28;;;281.70;1894.40;;;;;;5065042;28;20104;-79
2023/03/16 10:05:28;;;;;;;8.70;4.32;;;282.00;1868.80;;;;;;5066657;28;20055;-80
2023/03/16 10:08:14;;;;;;;8.63;4.45;;;282.00;1792.00;;;;;;5053313;28;20483;-79
2023/03/16 10:10:50;;;;;;;12.27;4.80;;;282.20;1894.40;;;;;;5043198;28;20017;-77
2023/03/16 10:13:25;;;;;;;8.82;3.05;;;282.10;1817.60;;;;;;5039572;28;20055;-77
2023/03/16 10:15:52;;;;;;;7.35;3.60;;;282.40;1843.20;;;;;;5045731;28;20028;-77
2023/03/16 10:18:27;;;;;;;10.70;4.18;;;307.30;1843.20;;;;;;5060219;28;20091;-81
2023/03/16 10:20:54;;;;;;;6.80;2.85;;;282.40;1766.40;;;;;;5055724;28;20049;-78
2023/03/16 10:23:23;;;;;;;12.65;4.25;;;281.70;1740.80;;;;;;5054970;28;20029;-78
2023/03/16 10:25:53;;;;;;;7.00;3.70;;;281.90;1766.40;;;;;;5061006;28;20017;-90
2023/03/16 10:28:25;;;;;;;6.72;3.67;;;281.70;1715.20;;;;;;5053442;28;20033;-80
2023/03/16 10:30:54;;;;;;;8.93;3.90;;;282.30;1715.20;;;;;;5052996;28;20522;-80
2023/03/16 10:33:27;;;;;;;8.18;3.75;;;282.30;1689.60;;;;;;5047570;28;20079;-76
2023/03/16 10:36:04;;;;;;;9.27;4.10;;;282.30;1740.80;;;;;;5063114;28;20028;-77
2023/03/16 10:38:39;;;;;;;10.40;4.90;;;307.50;1740.80;;;;;;5043222;28;20116;-80
2023/03/16 10:41:17;;;;;;;9.70;4.15;;;307.40;1740.80;;;;;;5042140;28;20480;-78
2023/03/16 10:43:46;;;;;;;10.15;3.83;;;282.20;1715.20;;;;;;5059617;28;20025;-78
2023/03/16 10:46:12;;;;;;;9.77;5.00;;;282.40;1689.60;;;;;;5072777;28;20035;-77
2023/03/16 10:48:39;;;;;;;6.70;3.83;;;282.30;1740.80;;;;;;5077670;28;20056;-77
2023/03/16 10:51:12;;;;;;;17.08;4.07;;;307.70;1664.00;;;;;;5072964;28;20023;-78
2023/03/16 10:53:42;;;;;;;10.73;4.28;;;308.00;1638.40;;;;;;5054742;28;20033;-78
2023/03/16 10:56:12;;;;;;;11.45;4.20;;;307.40;1638.40;;;;;;5059585;28;20020;-77
2023/03/16 10:58:41;;;;;;;8.38;3.70;;;307.60;1638.40;;;;;;5042787;28;20086;-78
2023/03/16 11:01:25;;;;;;;13.77;4.18;;;307.90;1587.20;;;;;;5070203;28;20024;-78
2023/03/16 11:03:54;;;;;;;13.27;5.30;;;332.90;1638.40;;;;;;5073374;28;20025;-78
2023/03/16 11:06:29;;;;;;;11.32;4.35;;;307.30;1664.00;;;;;;5067720;28;20027;-80
2023/03/16 11:09:11;;;;;;;9.30;4.07;;;307.40;1664.00;;;;;;5052395;28;20049;-79
2023/03/16 11:11:37;;;;;;;8.60;4.93;;;308.10;1638.40;;;;;;5047673;28;20033;-79
2023/03/16 11:14:14;;;;;;;6.15;4.00;;;332.80;1561.60;;;;;;5067905;28;20031;-80
2023/03/16 11:16:52;;;;;;;6.30;3.50;;;307.20;1587.20;;;;;;5057220;28;20036;-77
2023/03/16 11:19:23;;;;;;;10.35;4.18;;;307.60;1587.20;;;;;;5074594;28;20028;-81
2023/03/16 11:22:11;;;;;;;11.82;3.75;;;308.00;1587.20;;;;;;5076368;28;20031;-80
2023/03/16 11:25:03;;;;;;;7.38;3.65;;;307.80;1561.60;;;;;;5056108;28;20028;-79
2023/03/16 11:27:53;;;;;;;7.85;3.55;;;333.10;1561.60;;;;;;5056165;28;20031;-80
2023/03/16 11:30:29;;;;;;;12.80;3.92;;;307.50;1536.00;;;;;;5058425;28;20033;-80
2023/03/16 11:32:59;;;;;;;17.23;7.45;;;282.30;1536.00;;;;;;5067868;28;20079;-79
2023/03/16 11:36:13;;;;;;;20.48;7.95;;;307.60;1510.40;;;;;;5070403;28;20485;-78
2023/03/16 11:39:08;;;;;;;12.10;4.10;;;332.90;1510.40;;;;;;4981128;28;20065;-79
2023/03/16 11:41:44;;;;;;;8.20;4.35;;;307.80;1510.40;;;;;;4966409;28;20049;-79
2023/03/16 11:44:41;;;;;;;10.52;4.80;;;307.90;1510.40;;;;;;4975420;28;20034;-78
2023/03/16 11:47:22;;;;;;;7.13;4.28;;;333.10;1510.40;;;;;;4974814;28;20045;-76
2023/03/16 11:50:16;;;;;;;8.13;4.30;;;307.80;1510.40;;;;;;4974504;28;20058;-81
2023/03/16 11:53:06;;;;;;;11.80;5.32;;;332.90;1510.40;;;;;;4975353;28;20136;-80
2023/03/16 11:55:49;;;;;;;15.75;4.95;;;307.90;1484.80;;;;;;4974391;28;20046;-78
2023/03/16 11:58:50;;;;;;;7.00;3.90;;;282.50;1484.80;;;;;;4971502;28;20039;-78
2023/03/16 12:01:34;;;;;;;8.52;3.47;;;307.90;1459.20;;;;;;4955490;28;20051;-79
2023/03/16 12:04:11;;;;;;;15.40;3.83;;;332.90;1433.60;;;;;;4955324;29;20119;-81
2023/03/16 12:06:59;;;;;;;11.77;3.60;;;333.20;1408.00;;;;;;4939452;29;20039;-82
2023/03/16 12:09:49;;;;;;;9.18;3.58;;;333.50;1408.00;;;;;;4948680;28;20149;-80
2023/03/16 12:12:37;;;;;;;11.55;4.43;;;333.40;1459.20;;;;;;4954617;28;20542;-79
2023/03/16 12:15:23;;;;;;;10.45;5.03;;;333.70;1433.60;;;;;;4955402;28;20473;-80
2023/03/16 12:17:54;;;;;;;9.20;4.47;;;358.40;1408.00;;;;;;4957861;28;20057;-82
2023/03/16 12:20:30;;;;;;;6.43;4.13;;;332.90;1459.20;;;;;;4992533;28;20026;-80
2023/03/16 12:23:09;;;;;;;10.18;3.70;;;307.80;1433.60;;;;;;4990375;28;20144;-79
2023/03/16 12:25:38;;;;;;;6.55;3.53;;;333.10;1433.60;;;;;;4993790;28;20042;-81
2023/03/16 12:28:17;;;;;;;8.38;4.25;;;333.20;1382.40;;;;;;4969967;28;20053;-79
2023/03/16 12:31:08;;;;;;;7.80;4.25;;;333.40;1356.80;;;;;;4992005;28;20034;-79
2023/03/16 12:34:05;;;;;;;10.77;4.35;;;333.20;1408.00;;;;;;4978851;28;20026;-83
2023/03/16 12:36:57;;;;;;;10.55;4.55;;;333.30;1459.20;;;;;;5046230;28;20028;-79
2023/03/16 12:39:29;;;;;;;6.50;3.85;;;308.00;1484.80;;;;;;5051779;28;20394;-78
2023/03/16 12:42:16;;;;;;;10.63;4.80;;;307.40;1510.40;;;;;;5053732;28;20485;-80
2023/03/16 12:44:53;;;;;;;8.88;4.78;;;282.40;1510.40;;;;;;5044231;28;20040;-82